sensor_id;sensor_type;location;lat;lon;timestamp;temperature;humidity
64012;DHT22;50211;52.768;12.124;2023-03-04T00:01:45;2.80;99.90
64012;DHT22;50211;52.768;12.124;2023-03-04T00:04:11;2.80;99.90
64012;DHT22;50211;52.768;12.124;2023-03-04T00:06:36;2.80;99.90
64012;DHT22;50211;52.768;12.124;2023-03-04T00:09:03;2.80;99.90
64012;DHT22;50211;52.768;12.124;2023-03-04T00:11:29;2.90;99.90
64012;DHT22;50211;52.768;12.124;2023-03-04T00:13:55;2.90;99.90
64012;DHT22;50211;52.768;12.124;2023-03-04T00:16:20;3.00;99.90
64012;DHT22;50211;52.768;12.124;2023-03-04T00:18:46;3.00;99.90
64012;DHT22;50211;52.768;12.124;2023-03-04T00:21:11;3.00;99.90
64012;DHT22;50211;52.768;12.124;2023-03-04T00:23:37;3.00;99.90
64012;DHT22;50211;52.768;12.124;2023-03-04T00:26:02;3.10;99.90
64012;DHT22;50211;52.768;12.124;2023-03-04T00:28:28;3.10;99.90
64012;DHT22;50211;52.768;12.124;2023-03-04T00:30:54;3.20;99.90
64012;DHT22;50211;52.768;12.124;2023-03-04T00:33:19;3.20;99.90
64012;DHT22;50211;52.768;12.124;2023-03-04T00:35:45;3.20;99.90
64012;DHT22;50211;52.768;12.124;2023-03-04T00:38:10;3.20;99.90
64012;DHT22;50211;52.768;12.124;2023-03-04T00:40:36;3.30;99.90
64012;DHT22;50211;52.768;12.124;2023-03-04T00:43:01;3.30;99.90
64012;DHT22;50211;52.768;12.124;2023-03-04T00:45:27;3.30;99.90
64012;DHT22;50211;52.768;12.124;2023-03-04T00:47:52;3.30;99.90
64012;DHT22;50211;52.768;12.124;2023-03-04T00:50:18;3.30;99.90
64012;DHT22;50211;52.768;12.124;2023-03-04T00:52:43;3.40;99.90
64012;DHT22;50211;52.768;12.124;2023-03-04T00:55:09;3.40;99.90
64012;DHT22;50211;52.768;12.124;2023-03-04T00:57:34;3.40;99.90
64012;DHT22;50211;52.768;12.124;2023-03-04T01:00:00;3.50;99.90
64012;DHT22;50211;52.768;12.124;2023-03-04T01:02:25;3.50;99.90
64012;DHT22;50211;52.768;12.124;2023-03-04T01:04:51;3.50;99.90
64012;DHT22;50211;52.768;12.124;2023-03-04T01:07:17;3.50;99.90
64012;DHT22;50211;52.768;12.124;2023-03-04T01:09:42;3.50;99.90
64012;DHT22;50211;52.768;12.124;2023-03-04T01:12:08;3.50;99.90
64012;DHT22;50211;52.768;12.124;2023-03-04T01:14:34;3.50;99.90
64012;DHT22;50211;52.768;12.124;2023-03-04T01:16:59;3.50;99.90
64012;DHT22;50211;52.768;12.124;2023-03-04T01:19:25;3.60;99.90
64012;DHT22;50211;52.768;12.124;2023-03-04T01:21:51;3.50;99.90
64012;DHT22;50211;52.768;12.124;2023-03-04T01:24:16;3.60;99.90
64012;DHT22;50211;52.768;12.124;2023-03-04T01:26:42;3.60;99.90
64012;DHT22;50211;52.768;12.124;2023-03-04T01:29:07;3.60;99.90
64012;DHT22;50211;52.768;12.124;2023-03-04T01:31:33;3.60;99.90
64012;DHT22;50211;52.768;12.124;2023-03-04T01:33:58;3.60;99.90
64012;DHT22;50211;52.768;12.124;2023-03-04T01:36:24;3.60;99.90
64012;DHT22;50211;52.768;12.124;2023-03-04T01:38:49;3.60;99.90
64012;DHT22;50211;52.768;12.124;2023-03-04T01:41:17;3.60;99.90
64012;DHT22;50211;52.768;12.124;2023-03-04T01:43:43;3.70;99.90
64012;DHT22;50211;52.768;12.124;2023-03-04T01:46:11;3.70;99.90
64012;DHT22;50211;52.768;12.124;2023-03-04T01:48:39;3.70;99.90
64012;DHT22;50211;52.768;12.124;2023-03-04T01:51:11;3.70;99.90
64012;DHT22;50211;52.768;12.124;2023-03-04T01:53:37;3.70;99.90
64012;DHT22;50211;52.768;12.124;2023-03-04T01:56:32;3.80;99.90
64012;DHT22;50211;52.768;12.124;2023-03-04T01:59:10;3.70;99.90
64012;DHT22;50211;52.768;12.124;2023-03-04T02:01:37;3.80;99.90
64012;DHT22;50211;52.768;12.124;2023-03-04T02:04:04;3.80;99.90
64012;DHT22;50211;52.768;12.124;2023-03-04T02:06:30;3.80;99.90
64012;DHT22;50211;52.768;12.124;2023-03-04T02:08:55;3.80;99.90
64012;DHT22;50211;52.768;12.124;2023-03-04T02:11:21;3.80;99.90
64012;DHT22;50211;52.768;12.124;2023-03-04T02:13:47;3.80;99.90
64012;DHT22;50211;52.768;12.124;2023-03-04T02:16:12;3.90;99.90
64012;DHT22;50211;52.768;12.124;2023-03-04T02:18:38;3.90;99.90
64012;DHT22;50211;52.768;12.124;2023-03-04T02:21:11;3.90;99.90
64012;DHT22;50211;52.768;12.124;2023-03-04T02:26:29;3.90;99.90
64012;DHT22;50211;52.768;12.124;2023-03-04T02:28:57;4.00;99.90
64012;DHT22;50211;52.768;12.124;2023-03-04T02:31:35;4.00;99.90
64012;DHT22;50211;52.768;12.124;2023-03-04T02:34:04;4.00;99.90
64012;DHT22;50211;52.768;12.124;2023-03-04T02:36:31;4.00;99.90
64012;DHT22;50211;52.768;12.124;2023-03-04T02:39:03;4.00;99.90
64012;DHT22;50211;52.768;12.124;2023-03-04T02:41:29;4.00;99.90
64012;DHT22;50211;52.768;12.124;2023-03-04T02:43:55;4.10;99.90
64012;DHT22;50211;52.768;12.124;2023-03-04T02:46:21;4.10;99.90
64012;DHT22;50211;52.768;12.124;2023-03-04T02:48:48;4.10;99.90
64012;DHT22;50211;52.768;12.124;2023-03-04T02:51:14;4.10;99.90
64012;DHT22;50211;52.768;12.124;2023-03-04T02:53:39;4.20;99.90
64012;DHT22;50211;52.768;12.124;2023-03-04T02:56:05;4.10;99.90
64012;DHT22;50211;52.768;12.124;2023-03-04T02:58:31;4.20;99.90
64012;DHT22;50211;52.768;12.124;2023-03-04T03:00:56;4.20;99.90
64012;DHT22;50211;52.768;12.124;2023-03-04T03:03:22;4.20;99.90
64012;DHT22;50211;52.768;12.124;2023-03-04T03:05:47;4.20;99.90
64012;DHT22;50211;52.768;12.124;2023-03-04T03:08:13;4.20;99.90
64012;DHT22;50211;52.768;12.124;2023-03-04T03:10:38;4.30;99.90
64012;DHT22;50211;52.768;12.124;2023-03-04T03:13:04;4.30;99.90
64012;DHT22;50211;52.768;12.124;2023-03-04T03:15:29;4.40;99.90
64012;DHT22;50211;52.768;12.124;2023-03-04T03:17:55;4.40;99.90
64012;DHT22;50211;52.768;12.124;2023-03-04T03:20:21;4.50;99.90
64012;DHT22;50211;52.768;12.124;2023-03-04T03:22:46;4.50;99.90
64012;DHT22;50211;52.768;12.124;2023-03-04T03:25:13;4.50;99.90
64012;DHT22;50211;52.768;12.124;2023-03-04T03:27:39;4.50;99.90
64012;DHT22;50211;52.768;12.124;2023-03-04T03:30:06;4.60;99.90
64012;DHT22;50211;52.768;12.124;2023-03-04T03:32:32;4.60;99.90
64012;DHT22;50211;52.768;12.124;2023-03-04T03:34:58;4.60;99.90
64012;DHT22;50211;52.768;12.124;2023-03-04T03:37:23;4.60;99.90
64012;DHT22;50211;52.768;12.124;2023-03-04T03:39:49;4.70;99.90
64012;DHT22;50211;52.768;12.124;2023-03-04T03:42:14;4.60;99.90
64012;DHT22;50211;52.768;12.124;2023-03-04T03:44:40;4.60;99.90
64012;DHT22;50211;52.768;12.124;2023-03-04T03:47:06;4.70;99.90
64012;DHT22;50211;52.768;12.124;2023-03-04T03:49:31;4.70;99.90
64012;DHT22;50211;52.768;12.124;2023-03-04T03:51:57;4.70;99.90
64012;DHT22;50211;52.768;12.124;2023-03-04T03:54:22;4.70;99.90
64012;DHT22;50211;52.768;12.124;2023-03-04T03:56:48;4.90;99.90
64012;DHT22;50211;52.768;12.124;2023-03-04T03:59:13;4.80;99.90
64012;DHT22;50211;52.768;12.124;2023-03-04T04:01:39;4.80;99.90
64012;DHT22;50211;52.768;12.124;2023-03-04T04:04:04;4.80;99.90
64012;DHT22;50211;52.768;12.124;2023-03-04T04:06:30;4.70;99.90
64012;DHT22;50211;52.768;12.124;2023-03-04T04:08:56;4.80;99.90
64012;DHT22;50211;52.768;12.124;2023-03-04T04:11:21;4.80;99.90
64012;DHT22;50211;52.768;12.124;2023-03-04T04:13:47;4.80;99.90
64012;DHT22;50211;52.768;12.124;2023-03-04T04:16:12;4.80;99.90
64012;DHT22;50211;52.768;12.124;2023-03-04T04:18:38;4.90;99.90
64012;DHT22;50211;52.768;12.124;2023-03-04T04:21:04;4.90;99.90
64012;DHT22;50211;52.768;12.124;2023-03-04T04:23:29;4.90;99.90
64012;DHT22;50211;52.768;12.124;2023-03-04T04:25:55;4.90;99.90
64012;DHT22;50211;52.768;12.124;2023-03-04T04:28:21;4.90;99.90
64012;DHT22;50211;52.768;12.124;2023-03-04T04:30:47;5.00;99.90
64012;DHT22;50211;52.768;12.124;2023-03-04T04:33:13;4.90;99.90
64012;DHT22;50211;52.768;12.124;2023-03-04T04:35:38;5.00;99.90
64012;DHT22;50211;52.768;12.124;2023-03-04T04:38:05;4.90;99.90
64012;DHT22;50211;52.768;12.124;2023-03-04T04:40:30;5.00;99.90
64012;DHT22;50211;52.768;12.124;2023-03-04T04:42:56;4.90;99.90
64012;DHT22;50211;52.768;12.124;2023-03-04T04:45:22;4.90;99.90
64012;DHT22;50211;52.768;12.124;2023-03-04T04:47:49;5.00;99.90
64012;DHT22;50211;52.768;12.124;2023-03-04T04:50:15;5.00;99.90
64012;DHT22;50211;52.768;12.124;2023-03-04T04:52:40;4.90;99.90
64012;DHT22;50211;52.768;12.124;2023-03-04T04:55:06;5.00;99.90
64012;DHT22;50211;52.768;12.124;2023-03-04T04:57:32;5.00;99.90
64012;DHT22;50211;52.768;12.124;2023-03-04T04:59:58;5.00;99.90
64012;DHT22;50211;52.768;12.124;2023-03-04T05:02:24;5.00;99.90
64012;DHT22;50211;52.768;12.124;2023-03-04T05:04:49;5.00;99.90
64012;DHT22;50211;52.768;12.124;2023-03-04T05:07:15;4.90;99.90
64012;DHT22;50211;52.768;12.124;2023-03-04T05:09:40;4.90;99.90
64012;DHT22;50211;52.768;12.124;2023-03-04T05:12:06;4.90;99.90
64012;DHT22;50211;52.768;12.124;2023-03-04T05:14:31;5.00;99.90
64012;DHT22;50211;52.768;12.124;2023-03-04T05:16:57;5.00;99.90
64012;DHT22;50211;52.768;12.124;2023-03-04T05:19:22;5.00;99.90
64012;DHT22;50211;52.768;12.124;2023-03-04T05:21:48;5.00;99.90
64012;DHT22;50211;52.768;12.124;2023-03-04T05:24:13;4.90;99.90
64012;DHT22;50211;52.768;12.124;2023-03-04T05:26:39;4.90;99.90
64012;DHT22;50211;52.768;12.124;2023-03-04T05:29:04;5.00;99.90
64012;DHT22;50211;52.768;12.124;2023-03-04T05:31:30;4.90;99.90
64012;DHT22;50211;52.768;12.124;2023-03-04T05:33:55;4.90;99.90
64012;DHT22;50211;52.768;12.124;2023-03-04T05:36:21;4.90;99.90
64012;DHT22;50211;52.768;12.124;2023-03-04T05:38:46;4.90;99.90
64012;DHT22;50211;52.768;12.124;2023-03-04T05:41:12;5.00;99.90
64012;DHT22;50211;52.768;12.124;2023-03-04T05:43:37;5.00;99.90
64012;DHT22;50211;52.768;12.124;2023-03-04T05:46:07;4.90;99.90
64012;DHT22;50211;52.768;12.124;2023-03-04T05:48:33;5.00;99.90
64012;DHT22;50211;52.768;12.124;2023-03-04T05:51:00;4.90;99.90
64012;DHT22;50211;52.768;12.124;2023-03-04T05:53:26;4.90;99.90
64012;DHT22;50211;52.768;12.124;2023-03-04T05:55:53;4.90;99.90
64012;DHT22;50211;52.768;12.124;2023-03-04T05:58:19;4.90;99.90
64012;DHT22;50211;52.768;12.124;2023-03-04T06:00:45;4.90;99.90
64012;DHT22;50211;52.768;12.124;2023-03-04T06:03:20;4.90;99.90
64012;DHT22;50211;52.768;12.124;2023-03-04T06:05:47;4.90;99.90
64012;DHT22;50211;52.768;12.124;2023-03-04T06:08:13;5.00;99.90
64012;DHT22;50211;52.768;12.124;2023-03-04T06:10:39;4.90;99.90
64012;DHT22;50211;52.768;12.124;2023-03-04T06:13:06;4.90;99.90
64012;DHT22;50211;52.768;12.124;2023-03-04T06:15:31;4.90;99.90
64012;DHT22;50211;52.768;12.124;2023-03-04T06:17:57;4.90;99.90
64012;DHT22;50211;52.768;12.124;2023-03-04T06:20:23;4.90;99.90
64012;DHT22;50211;52.768;12.124;2023-03-04T06:22:48;4.90;99.90
64012;DHT22;50211;52.768;12.124;2023-03-04T06:25:14;4.90;99.90
64012;DHT22;50211;52.768;12.124;2023-03-04T06:27:39;4.90;99.90
64012;DHT22;50211;52.768;12.124;2023-03-04T06:30:06;4.80;99.90
64012;DHT22;50211;52.768;12.124;2023-03-04T06:32:31;4.80;99.90
64012;DHT22;50211;52.768;12.124;2023-03-04T06:34:57;4.80;99.90
64012;DHT22;50211;52.768;12.124;2023-03-04T06:37:23;4.80;99.90
64012;DHT22;50211;52.768;12.124;2023-03-04T06:39:48;4.80;99.90
64012;DHT22;50211;52.768;12.124;2023-03-04T06:42:14;4.80;99.90
64012;DHT22;50211;52.768;12.124;2023-03-04T06:44:40;4.80;99.90
64012;DHT22;50211;52.768;12.124;2023-03-04T06:47:05;4.90;99.90
64012;DHT22;50211;52.768;12.124;2023-03-04T06:49:31;4.80;99.90
64012;DHT22;50211;52.768;12.124;2023-03-04T06:51:57;4.80;99.90
64012;DHT22;50211;52.768;12.124;2023-03-04T06:54:22;4.90;99.90
64012;DHT22;50211;52.768;12.124;2023-03-04T06:56:48;4.90;99.90
64012;DHT22;50211;52.768;12.124;2023-03-04T06:59:13;5.00;99.90
64012;DHT22;50211;52.768;12.124;2023-03-04T07:01:39;5.00;99.90
64012;DHT22;50211;52.768;12.124;2023-03-04T07:04:04;5.00;99.90
64012;DHT22;50211;52.768;12.124;2023-03-04T07:06:30;5.10;99.90
64012;DHT22;50211;52.768;12.124;2023-03-04T07:08:56;5.00;99.90
64012;DHT22;50211;52.768;12.124;2023-03-04T07:11:23;5.00;99.90
64012;DHT22;50211;52.768;12.124;2023-03-04T07:13:49;5.00;99.90
64012;DHT22;50211;52.768;12.124;2023-03-04T07:16:18;5.00;99.90
64012;DHT22;50211;52.768;12.124;2023-03-04T07:18:44;5.00;99.90
64012;DHT22;50211;52.768;12.124;2023-03-04T07:21:10;5.00;99.90
64012;DHT22;50211;52.768;12.124;2023-03-04T07:23:36;5.10;99.90
64012;DHT22;50211;52.768;12.124;2023-03-04T07:26:02;5.00;99.90
64012;DHT22;50211;52.768;12.124;2023-03-04T07:28:28;5.00;99.90
64012;DHT22;50211;52.768;12.124;2023-03-04T07:30:53;5.00;99.90
64012;DHT22;50211;52.768;12.124;2023-03-04T07:33:19;5.10;99.90
64012;DHT22;50211;52.768;12.124;2023-03-04T07:35:44;5.10;99.90
64012;DHT22;50211;52.768;12.124;2023-03-04T07:38:10;5.20;99.90
64012;DHT22;50211;52.768;12.124;2023-03-04T07:40:36;5.20;99.90
64012;DHT22;50211;52.768;12.124;2023-03-04T07:43:01;5.20;99.90
64012;DHT22;50211;52.768;12.124;2023-03-04T07:45:27;5.20;99.90
64012;DHT22;50211;52.768;12.124;2023-03-04T07:47:53;5.20;99.90
64012;DHT22;50211;52.768;12.124;2023-03-04T07:50:18;5.20;99.90
64012;DHT22;50211;52.768;12.124;2023-03-04T07:52:46;5.20;99.90
64012;DHT22;50211;52.768;12.124;2023-03-04T07:55:14;5.20;99.90
64012;DHT22;50211;52.768;12.124;2023-03-04T07:57:41;5.20;99.90
64012;DHT22;50211;52.768;12.124;2023-03-04T08:00:08;5.30;99.90
64012;DHT22;50211;52.768;12.124;2023-03-04T08:02:34;5.30;99.90
64012;DHT22;50211;52.768;12.124;2023-03-04T08:04:59;5.30;99.90
64012;DHT22;50211;52.768;12.124;2023-03-04T08:07:25;5.30;99.90
64012;DHT22;50211;52.768;12.124;2023-03-04T08:09:50;5.20;99.90
64012;DHT22;50211;52.768;12.124;2023-03-04T08:12:16;5.30;99.90
64012;DHT22;50211;52.768;12.124;2023-03-04T08:14:41;5.30;99.90
64012;DHT22;50211;52.768;12.124;2023-03-04T08:17:07;5.30;99.90
64012;DHT22;50211;52.768;12.124;2023-03-04T08:19:34;5.30;99.90
64012;DHT22;50211;52.768;12.124;2023-03-04T08:21:59;5.30;99.90
64012;DHT22;50211;52.768;12.124;2023-03-04T08:24:26;5.30;99.90
64012;DHT22;50211;52.768;12.124;2023-03-04T08:26:51;5.40;99.90
64012;DHT22;50211;52.768;12.124;2023-03-04T08:29:19;5.50;99.90
64012;DHT22;50211;52.768;12.124;2023-03-04T08:31:46;5.50;99.90
64012;DHT22;50211;52.768;12.124;2023-03-04T08:34:12;5.60;99.90
64012;DHT22;50211;52.768;12.124;2023-03-04T08:36:39;5.60;99.90
64012;DHT22;50211;52.768;12.124;2023-03-04T08:39:05;5.70;99.90
64012;DHT22;50211;52.768;12.124;2023-03-04T08:41:31;5.70;99.90
64012;DHT22;50211;52.768;12.124;2023-03-04T08:43:58;5.70;99.90
64012;DHT22;50211;52.768;12.124;2023-03-04T08:46:24;5.70;99.90
64012;DHT22;50211;52.768;12.124;2023-03-04T08:48:49;5.70;99.90
64012;DHT22;50211;52.768;12.124;2023-03-04T08:51:15;5.70;99.90
64012;DHT22;50211;52.768;12.124;2023-03-04T08:53:41;5.70;99.90
64012;DHT22;50211;52.768;12.124;2023-03-04T08:56:07;5.70;99.90
64012;DHT22;50211;52.768;12.124;2023-03-04T08:58:33;5.70;99.90
64012;DHT22;50211;52.768;12.124;2023-03-04T09:01:00;5.70;99.90
64012;DHT22;50211;52.768;12.124;2023-03-04T09:03:26;5.60;99.90
64012;DHT22;50211;52.768;12.124;2023-03-04T09:05:52;5.60;99.90
64012;DHT22;50211;52.768;12.124;2023-03-04T09:08:18;5.70;99.90
64012;DHT22;50211;52.768;12.124;2023-03-04T09:10:45;5.70;99.90
64012;DHT22;50211;52.768;12.124;2023-03-04T09:13:12;5.70;99.90
64012;DHT22;50211;52.768;12.124;2023-03-04T09:15:44;5.70;99.90
64012;DHT22;50211;52.768;12.124;2023-03-04T09:18:10;5.70;99.90
64012;DHT22;50211;52.768;12.124;2023-03-04T09:20:36;5.70;99.90
64012;DHT22;50211;52.768;12.124;2023-03-04T09:23:02;5.70;99.90
64012;DHT22;50211;52.768;12.124;2023-03-04T09:25:27;5.70;99.90
64012;DHT22;50211;52.768;12.124;2023-03-04T09:27:53;5.80;99.90
64012;DHT22;50211;52.768;12.124;2023-03-04T09:30:18;5.70;99.90
64012;DHT22;50211;52.768;12.124;2023-03-04T09:32:44;5.70;99.90
64012;DHT22;50211;52.768;12.124;2023-03-04T09:35:10;5.80;99.90
64012;DHT22;50211;52.768;12.124;2023-03-04T09:37:36;5.80;99.90
64012;DHT22;50211;52.768;12.124;2023-03-04T09:40:02;5.80;99.90
64012;DHT22;50211;52.768;12.124;2023-03-04T09:42:43;5.80;99.90
64012;DHT22;50211;52.768;12.124;2023-03-04T09:47:46;5.80;99.90
64012;DHT22;50211;52.768;12.124;2023-03-04T09:50:13;5.80;99.90
64012;DHT22;50211;52.768;12.124;2023-03-04T09:52:43;5.90;99.90
64012;DHT22;50211;52.768;12.124;2023-03-04T09:55:33;6.00;99.90
64012;DHT22;50211;52.768;12.124;2023-03-04T10:00:57;6.00;99.90
64012;DHT22;50211;52.768;12.124;2023-03-04T10:03:53;6.10;99.90
64012;DHT22;50211;52.768;12.124;2023-03-04T10:06:21;6.40;99.90
64012;DHT22;50211;52.768;12.124;2023-03-04T10:09:03;6.60;99.90
64012;DHT22;50211;52.768;12.124;2023-03-04T10:11:37;6.60;99.90
64012;DHT22;50211;52.768;12.124;2023-03-04T10:21:58;6.90;99.90
64012;DHT22;50211;52.768;12.124;2023-03-04T10:24:27;6.90;99.90
64012;DHT22;50211;52.768;12.124;2023-03-04T10:27:06;6.90;99.90
64012;DHT22;50211;52.768;12.124;2023-03-04T10:29:35;7.00;99.90
64012;DHT22;50211;52.768;12.124;2023-03-04T10:32:01;6.80;99.90
64012;DHT22;50211;52.768;12.124;2023-03-04T10:34:26;6.80;99.90
64012;DHT22;50211;52.768;12.124;2023-03-04T10:36:59;6.60;99.90
64012;DHT22;50211;52.768;12.124;2023-03-04T10:39:45;6.70;99.90
64012;DHT22;50211;52.768;12.124;2023-03-04T10:44:51;6.60;99.90
64012;DHT22;50211;52.768;12.124;2023-03-04T10:47:17;6.50;99.90
64012;DHT22;50211;52.768;12.124;2023-03-04T10:49:51;6.60;99.90
64012;DHT22;50211;52.768;12.124;2023-03-04T10:52:27;6.50;99.90
64012;DHT22;50211;52.768;12.124;2023-03-04T10:54:56;6.50;99.90
64012;DHT22;50211;52.768;12.124;2023-03-04T10:57:36;6.60;99.90
64012;DHT22;50211;52.768;12.124;2023-03-04T11:00:18;6.70;99.90
64012;DHT22;50211;52.768;12.124;2023-03-04T11:02:47;6.70;99.90
64012;DHT22;50211;52.768;12.124;2023-03-04T11:05:22;6.70;99.90
64012;DHT22;50211;52.768;12.124;2023-03-04T11:07:55;6.60;99.90
64012;DHT22;50211;52.768;12.124;2023-03-04T11:10:37;6.60;99.90
64012;DHT22;50211;52.768;12.124;2023-03-04T11:18:40;6.30;99.90
64012;DHT22;50211;52.768;12.124;2023-03-04T11:21:12;6.30;99.90
64012;DHT22;50211;52.768;12.124;2023-03-04T11:23:48;6.40;99.90
64012;DHT22;50211;52.768;12.124;2023-03-04T11:26:27;6.30;99.90
64012;DHT22;50211;52.768;12.124;2023-03-04T11:31:37;6.30;99.90
64012;DHT22;50211;52.768;12.124;2023-03-04T11:37:05;6.40;99.90
64012;DHT22;50211;52.768;12.124;2023-03-04T11:45:03;6.60;99.90
64012;DHT22;50211;52.768;12.124;2023-03-04T11:48:11;6.50;99.90
64012;DHT22;50211;52.768;12.124;2023-03-04T11:50:48;6.60;99.90
64012;DHT22;50211;52.768;12.124;2023-03-04T11:56:23;6.60;99.90
64012;DHT22;50211;52.768;12.124;2023-03-04T12:01:41;6.60;99.90
64012;DHT22;50211;52.768;12.124;2023-03-04T12:12:52;6.60;99.90
64012;DHT22;50211;52.768;12.124;2023-03-04T12:17:59;6.50;99.90
64012;DHT22;50211;52.768;12.124;2023-03-04T12:20:43;6.30;99.90
64012;DHT22;50211;52.768;12.124;2023-03-04T12:26:02;6.70;99.90
64012;DHT22;50211;52.768;12.124;2023-03-04T12:28:45;6.70;99.90
64012;DHT22;50211;52.768;12.124;2023-03-04T12:31:40;6.60;99.90
64012;DHT22;50211;52.768;12.124;2023-03-04T12:39:21;6.50;99.90
64012;DHT22;50211;52.768;12.124;2023-03-04T12:45:14;6.40;99.90
64012;DHT22;50211;52.768;12.124;2023-03-04T12:48:00;6.50;99.90
64012;DHT22;50211;52.768;12.124;2023-03-04T12:53:31;6.70;99.90
64012;DHT22;50211;52.768;12.124;2023-03-04T12:55:58;6.80;99.90
64012;DHT22;50211;52.768;12.124;2023-03-04T12:58:29;6.70;99.90
64012;DHT22;50211;52.768;12.124;2023-03-04T13:01:10;6.80;99.90
64012;DHT22;50211;52.768;12.124;2023-03-04T13:06:42;6.70;99.90
64012;DHT22;50211;52.768;12.124;2023-03-04T13:09:30;6.70;99.90
64012;DHT22;50211;52.768;12.124;2023-03-04T13:12:16;6.80;99.90
64012;DHT22;50211;52.768;12.124;2023-03-04T13:17:47;6.70;99.90
64012;DHT22;50211;52.768;12.124;2023-03-04T13:20:32;6.80;99.90
64012;DHT22;50211;52.768;12.124;2023-03-04T13:25:36;6.90;99.90
64012;DHT22;50211;52.768;12.124;2023-03-04T13:46:41;6.40;99.90
64012;DHT22;50211;52.768;12.124;2023-03-04T13:49:20;6.60;99.90
64012;DHT22;50211;52.768;12.124;2023-03-04T13:51:47;6.70;99.90
64012;DHT22;50211;52.768;12.124;2023-03-04T13:57:17;6.40;99.90
64012;DHT22;50211;52.768;12.124;2023-03-04T13:59:54;6.30;99.90
64012;DHT22;50211;52.768;12.124;2023-03-04T14:02:22;6.20;99.90
64012;DHT22;50211;52.768;12.124;2023-03-04T14:07:37;6.10;99.90
64012;DHT22;50211;52.768;12.124;2023-03-04T14:12:50;6.10;99.90
64012;DHT22;50211;52.768;12.124;2023-03-04T14:15:28;6.20;99.90
64012;DHT22;50211;52.768;12.124;2023-03-04T14:17:58;6.10;99.90
64012;DHT22;50211;52.768;12.124;2023-03-04T14:20:35;6.10;99.90
64012;DHT22;50211;52.768;12.124;2023-03-04T14:23:03;6.00;99.90
64012;DHT22;50211;52.768;12.124;2023-03-04T14:25:34;6.00;99.90
64012;DHT22;50211;52.768;12.124;2023-03-04T14:28:11;6.10;99.90
64012;DHT22;50211;52.768;12.124;2023-03-04T14:30:37;6.00;99.90
64012;DHT22;50211;52.768;12.124;2023-03-04T14:33:07;5.90;99.90
64012;DHT22;50211;52.768;12.124;2023-03-04T14:35:32;5.90;99.90
64012;DHT22;50211;52.768;12.124;2023-03-04T14:38:04;5.80;99.90
64012;DHT22;50211;52.768;12.124;2023-03-04T14:40:35;5.80;99.90
64012;DHT22;50211;52.768;12.124;2023-03-04T14:43:10;5.70;99.90
64012;DHT22;50211;52.768;12.124;2023-03-04T14:45:38;5.70;99.90
64012;DHT22;50211;52.768;12.124;2023-03-04T14:48:06;5.80;99.90
64012;DHT22;50211;52.768;12.124;2023-03-04T14:50:33;5.80;99.90
64012;DHT22;50211;52.768;12.124;2023-03-04T14:55:33;5.70;99.90
64012;DHT22;50211;52.768;12.124;2023-03-04T14:58:28;5.70;99.90
64012;DHT22;50211;52.768;12.124;2023-03-04T15:01:14;5.70;99.90
64012;DHT22;50211;52.768;12.124;2023-03-04T15:04:02;5.60;99.90
64012;DHT22;50211;52.768;12.124;2023-03-04T15:06:32;5.60;99.90
64012;DHT22;50211;52.768;12.124;2023-03-04T15:09:04;5.50;99.90
64012;DHT22;50211;52.768;12.124;2023-03-04T15:11:51;5.50;99.90
64012;DHT22;50211;52.768;12.124;2023-03-04T15:14:57;5.50;99.90
64012;DHT22;50211;52.768;12.124;2023-03-04T15:17:27;5.40;99.90
64012;DHT22;50211;52.768;12.124;2023-03-04T15:20:16;5.40;99.90
64012;DHT22;50211;52.768;12.124;2023-03-04T15:25:16;5.50;99.90
64012;DHT22;50211;52.768;12.124;2023-03-04T15:27:44;5.50;99.90
64012;DHT22;50211;52.768;12.124;2023-03-04T15:30:22;5.60;99.90
64012;DHT22;50211;52.768;12.124;2023-03-04T15:32:50;5.60;99.90
64012;DHT22;50211;52.768;12.124;2023-03-04T15:35:17;5.50;99.90
64012;DHT22;50211;52.768;12.124;2023-03-04T15:37:43;5.50;99.90
64012;DHT22;50211;52.768;12.124;2023-03-04T15:40:19;5.50;99.90
64012;DHT22;50211;52.768;12.124;2023-03-04T15:42:47;5.50;99.90
64012;DHT22;50211;52.768;12.124;2023-03-04T15:45:23;5.50;99.90
64012;DHT22;50211;52.768;12.124;2023-03-04T15:47:49;5.50;99.90
64012;DHT22;50211;52.768;12.124;2023-03-04T15:50:16;5.60;99.90
64012;DHT22;50211;52.768;12.124;2023-03-04T15:52:42;5.60;99.90
64012;DHT22;50211;52.768;12.124;2023-03-04T15:55:16;5.50;99.90
64012;DHT22;50211;52.768;12.124;2023-03-04T15:57:45;5.50;99.90
64012;DHT22;50211;52.768;12.124;2023-03-04T16:00:13;5.50;99.90
64012;DHT22;50211;52.768;12.124;2023-03-04T16:02:38;5.50;99.90
64012;DHT22;50211;52.768;12.124;2023-03-04T16:05:05;5.40;99.90
64012;DHT22;50211;52.768;12.124;2023-03-04T16:07:31;5.40;99.90
64012;DHT22;50211;52.768;12.124;2023-03-04T16:10:00;5.30;99.90
64012;DHT22;50211;52.768;12.124;2023-03-04T16:12:27;5.40;99.90
64012;DHT22;50211;52.768;12.124;2023-03-04T16:14:53;5.40;99.90
64012;DHT22;50211;52.768;12.124;2023-03-04T16:17:18;5.30;99.90
64012;DHT22;50211;52.768;12.124;2023-03-04T16:19:44;5.30;99.90
64012;DHT22;50211;52.768;12.124;2023-03-04T16:22:15;5.20;99.90
64012;DHT22;50211;52.768;12.124;2023-03-04T16:24:42;5.20;99.90
64012;DHT22;50211;52.768;12.124;2023-03-04T16:27:10;5.20;99.90
64012;DHT22;50211;52.768;12.124;2023-03-04T16:29:37;5.20;99.90
64012;DHT22;50211;52.768;12.124;2023-03-04T16:32:02;5.10;99.90
64012;DHT22;50211;52.768;12.124;2023-03-04T16:34:28;5.10;99.90
64012;DHT22;50211;52.768;12.124;2023-03-04T16:36:53;5.00;99.90
64012;DHT22;50211;52.768;12.124;2023-03-04T16:39:21;5.00;99.90
64012;DHT22;50211;52.768;12.124;2023-03-04T16:41:48;5.00;99.90
64012;DHT22;50211;52.768;12.124;2023-03-04T16:44:14;4.90;99.90
64012;DHT22;50211;52.768;12.124;2023-03-04T16:46:40;4.90;99.90
64012;DHT22;50211;52.768;12.124;2023-03-04T16:49:05;4.80;99.90
64012;DHT22;50211;52.768;12.124;2023-03-04T16:51:34;4.80;99.90
64012;DHT22;50211;52.768;12.124;2023-03-04T16:54:03;4.80;99.90
64012;DHT22;50211;52.768;12.124;2023-03-04T16:56:31;4.80;99.90
64012;DHT22;50211;52.768;12.124;2023-03-04T16:58:56;4.80;99.90
64012;DHT22;50211;52.768;12.124;2023-03-04T17:01:27;4.80;99.90
64012;DHT22;50211;52.768;12.124;2023-03-04T17:03:54;4.90;99.90
64012;DHT22;50211;52.768;12.124;2023-03-04T17:06:20;4.80;99.90
64012;DHT22;50211;52.768;12.124;2023-03-04T17:08:47;4.90;99.90
64012;DHT22;50211;52.768;12.124;2023-03-04T17:11:18;4.80;99.90
64012;DHT22;50211;52.768;12.124;2023-03-04T17:13:44;4.80;99.90
64012;DHT22;50211;52.768;12.124;2023-03-04T17:16:11;4.80;99.90
64012;DHT22;50211;52.768;12.124;2023-03-04T17:18:36;4.80;99.90
64012;DHT22;50211;52.768;12.124;2023-03-04T17:21:05;4.70;99.90
64012;DHT22;50211;52.768;12.124;2023-03-04T17:23:31;4.70;99.90
64012;DHT22;50211;52.768;12.124;2023-03-04T17:25:57;4.70;99.90